sensor_id;sensor_type;location;lat;lon;timestamp;pressure;altitude;pressure_sealevel;temperature;humidity
61478;BME280;47345;52.334;10.392;2022-12-18T00:00:51;102314.58;;;-5.43;77.70
61478;BME280;47345;52.334;10.392;2022-12-18T00:03:21;102315.81;;;-5.43;77.32
61478;BME280;47345;52.334;10.392;2022-12-18T00:05:53;102314.80;;;-5.44;76.69
61478;BME280;47345;52.334;10.392;2022-12-18T00:08:24;102316.74;;;-5.48;75.85
61478;BME280;47345;52.334;10.392;2022-12-18T00:10:55;102311.77;;;-5.53;75.73
61478;BME280;47345;52.334;10.392;2022-12-18T00:13:28;102313.43;;;-5.58;75.92
61478;BME280;47345;52.334;10.392;2022-12-18T00:16:03;102313.74;;;-5.62;76.02
61478;BME280;47345;52.334;10.392;2022-12-18T00:18:34;102321.58;;;-5.62;76.30
61478;BME280;47345;52.334;10.392;2022-12-18T00:21:07;102324.98;;;-5.63;76.42
61478;BME280;47345;52.334;10.392;2022-12-18T00:23:39;102318.40;;;-5.64;76.60
61478;BME280;47345;52.334;10.392;2022-12-18T00:26:12;102321.63;;;-5.63;76.84
61478;BME280;47345;52.334;10.392;2022-12-18T00:28:44;102320.73;;;-5.63;76.96
61478;BME280;47345;52.334;10.392;2022-12-18T00:31:17;102327.44;;;-5.62;77.17
61478;BME280;47345;52.334;10.392;2022-12-18T00:33:48;102320.83;;;-5.61;77.23
61478;BME280;47345;52.334;10.392;2022-12-18T00:36:25;102324.88;;;-5.60;77.33
61478;BME280;47345;52.334;10.392;2022-12-18T00:38:57;102327.17;;;-5.60;77.30
61478;BME280;47345;52.334;10.392;2022-12-18T00:41:31;102328.20;;;-5.59;77.35
61478;BME280;47345;52.334;10.392;2022-12-18T00:44:20;102335.96;;;-5.57;77.18
61478;BME280;47345;52.334;10.392;2022-12-18T00:46:50;102339.57;;;-5.58;76.90
61478;BME280;47345;52.334;10.392;2022-12-18T00:49:21;102346.77;;;-5.61;76.61
61478;BME280;47345;52.334;10.392;2022-12-18T00:51:54;102344.23;;;-5.64;76.90
61478;BME280;47345;52.334;10.392;2022-12-18T00:54:25;102347.69;;;-5.67;76.86
61478;BME280;47345;52.334;10.392;2022-12-18T00:56:56;102353.64;;;-5.68;76.82
61478;BME280;47345;52.334;10.392;2022-12-18T00:59:26;102352.06;;;-5.69;76.55
61478;BME280;47345;52.334;10.392;2022-12-18T01:01:57;102358.92;;;-5.71;76.18
61478;BME280;47345;52.334;10.392;2022-12-18T01:04:28;102361.20;;;-5.75;76.25
61478;BME280;47345;52.334;10.392;2022-12-18T01:07:01;102354.10;;;-5.75;76.31
61478;BME280;47345;52.334;10.392;2022-12-18T01:09:32;102353.05;;;-5.76;76.25
61478;BME280;47345;52.334;10.392;2022-12-18T01:12:04;102347.95;;;-5.77;76.20
61478;BME280;47345;52.334;10.392;2022-12-18T01:14:35;102351.73;;;-5.79;76.12
61478;BME280;47345;52.334;10.392;2022-12-18T01:17:07;102349.98;;;-5.80;76.24
61478;BME280;47345;52.334;10.392;2022-12-18T01:19:37;102357.33;;;-5.81;76.32
61478;BME280;47345;52.334;10.392;2022-12-18T01:22:08;102365.23;;;-5.83;76.17
61478;BME280;47345;52.334;10.392;2022-12-18T01:24:39;102370.29;;;-5.85;76.10
61478;BME280;47345;52.334;10.392;2022-12-18T01:27:10;102373.33;;;-5.85;76.31
61478;BME280;47345;52.334;10.392;2022-12-18T01:29:40;102367.04;;;-5.88;75.94
61478;BME280;47345;52.334;10.392;2022-12-18T01:32:11;102369.65;;;-5.91;75.79
61478;BME280;47345;52.334;10.392;2022-12-18T01:34:42;102377.63;;;-5.96;75.46
61478;BME280;47345;52.334;10.392;2022-12-18T01:37:13;102380.54;;;-6.01;75.03
61478;BME280;47345;52.334;10.392;2022-12-18T01:39:43;102381.95;;;-6.05;74.77
61478;BME280;47345;52.334;10.392;2022-12-18T01:42:15;102379.48;;;-6.11;74.63
61478;BME280;47345;52.334;10.392;2022-12-18T01:45:08;102370.41;;;-6.15;74.75
61478;BME280;47345;52.334;10.392;2022-12-18T01:47:53;102369.45;;;-6.18;74.94
61478;BME280;47345;52.334;10.392;2022-12-18T01:50:27;102374.16;;;-6.20;75.22
61478;BME280;47345;52.334;10.392;2022-12-18T01:53:02;102376.80;;;-6.25;74.79
61478;BME280;47345;52.334;10.392;2022-12-18T01:55:36;102375.86;;;-6.28;75.00
61478;BME280;47345;52.334;10.392;2022-12-18T01:58:09;102378.36;;;-6.28;75.26
61478;BME280;47345;52.334;10.392;2022-12-18T02:00:40;102373.30;;;-6.31;74.97
61478;BME280;47345;52.334;10.392;2022-12-18T02:03:11;102376.52;;;-6.31;75.25
61478;BME280;47345;52.334;10.392;2022-12-18T02:05:46;102373.46;;;-6.30;75.49
61478;BME280;47345;52.334;10.392;2022-12-18T02:08:21;102367.68;;;-6.28;75.75
61478;BME280;47345;52.334;10.392;2022-12-18T02:11:00;102361.48;;;-6.28;75.54
61478;BME280;47345;52.334;10.392;2022-12-18T02:13:40;102363.79;;;-6.28;75.61
61478;BME280;47345;52.334;10.392;2022-12-18T02:16:21;102373.20;;;-6.28;75.74
61478;BME280;47345;52.334;10.392;2022-12-18T02:18:59;102389.64;;;-6.26;75.73
61478;BME280;47345;52.334;10.392;2022-12-18T02:21:37;102392.12;;;-6.26;75.68
61478;BME280;47345;52.334;10.392;2022-12-18T02:24:23;102390.94;;;-6.28;75.28
61478;BME280;47345;52.334;10.392;2022-12-18T02:26:59;102388.02;;;-6.30;74.96
61478;BME280;47345;52.334;10.392;2022-12-18T02:29:34;102381.13;;;-6.36;74.44
61478;BME280;47345;52.334;10.392;2022-12-18T02:32:11;102381.33;;;-6.41;74.51
61478;BME280;47345;52.334;10.392;2022-12-18T02:34:45;102374.84;;;-6.43;74.69
61478;BME280;47345;52.334;10.392;2022-12-18T02:37:18;102379.52;;;-6.45;74.84
61478;BME280;47345;52.334;10.392;2022-12-18T02:39:51;102382.67;;;-6.44;75.15
61478;BME280;47345;52.334;10.392;2022-12-18T02:42:37;102383.90;;;-6.43;75.16
61478;BME280;47345;52.334;10.392;2022-12-18T02:45:10;102384.80;;;-6.44;75.01
61478;BME280;47345;52.334;10.392;2022-12-18T02:47:43;102389.86;;;-6.46;74.67
61478;BME280;47345;52.334;10.392;2022-12-18T02:50:22;102394.97;;;-6.50;74.33
61478;BME280;47345;52.334;10.392;2022-12-18T02:53:04;102388.58;;;-6.55;73.64
61478;BME280;47345;52.334;10.392;2022-12-18T02:55:45;102382.20;;;-6.61;72.99
61478;BME280;47345;52.334;10.392;2022-12-18T02:58:20;102385.19;;;-6.65;73.50
61478;BME280;47345;52.334;10.392;2022-12-18T03:00:58;102382.13;;;-6.69;73.34
61478;BME280;47345;52.334;10.392;2022-12-18T03:03:31;102384.40;;;-6.73;73.43
61478;BME280;47345;52.334;10.392;2022-12-18T03:06:10;102375.69;;;-6.77;73.58
61478;BME280;47345;52.334;10.392;2022-12-18T03:08:47;102380.20;;;-6.79;74.10
61478;BME280;47345;52.334;10.392;2022-12-18T03:11:18;102387.22;;;-6.77;74.55
61478;BME280;47345;52.334;10.392;2022-12-18T03:14:09;102388.57;;;-6.75;74.69
61478;BME280;47345;52.334;10.392;2022-12-18T03:16:42;102385.47;;;-6.73;74.91
61478;BME280;47345;52.334;10.392;2022-12-18T03:19:18;102384.38;;;-6.72;74.69
61478;BME280;47345;52.334;10.392;2022-12-18T03:21:53;102374.23;;;-6.71;74.86
61478;BME280;47345;52.334;10.392;2022-12-18T03:24:25;102371.25;;;-6.72;74.81
61478;BME280;47345;52.334;10.392;2022-12-18T03:27:02;102368.50;;;-6.75;74.96
61478;BME280;47345;52.334;10.392;2022-12-18T03:29:37;102368.52;;;-6.75;75.17
61478;BME280;47345;52.334;10.392;2022-12-18T03:32:11;102372.43;;;-6.76;75.04
61478;BME280;47345;52.334;10.392;2022-12-18T03:34:43;102371.65;;;-6.79;75.01
61478;BME280;47345;52.334;10.392;2022-12-18T03:37:17;102370.88;;;-6.82;75.12
61478;BME280;47345;52.334;10.392;2022-12-18T03:39:48;102370.45;;;-6.86;75.10
61478;BME280;47345;52.334;10.392;2022-12-18T03:42:23;102362.25;;;-6.89;75.34
61478;BME280;47345;52.334;10.392;2022-12-18T03:45:00;102366.77;;;-6.91;75.47
61478;BME280;47345;52.334;10.392;2022-12-18T03:47:38;102371.36;;;-6.91;75.66
61478;BME280;47345;52.334;10.392;2022-12-18T03:50:13;102373.98;;;-6.89;75.75
61478;BME280;47345;52.334;10.392;2022-12-18T03:52:52;102374.50;;;-6.89;75.62
61478;BME280;47345;52.334;10.392;2022-12-18T03:55:26;102371.16;;;-6.90;75.79
61478;BME280;47345;52.334;10.392;2022-12-18T03:57:59;102370.11;;;-6.90;75.72
61478;BME280;47345;52.334;10.392;2022-12-18T04:00:31;102364.59;;;-6.90;75.77
61478;BME280;47345;52.334;10.392;2022-12-18T04:03:03;102368.27;;;-6.89;75.69
61478;BME280;47345;52.334;10.392;2022-12-18T04:05:35;102365.66;;;-6.90;75.73
61478;BME280;47345;52.334;10.392;2022-12-18T04:08:07;102361.94;;;-6.90;75.91
61478;BME280;47345;52.334;10.392;2022-12-18T04:10:38;102356.77;;;-6.89;75.76
61478;BME280;47345;52.334;10.392;2022-12-18T04:13:10;102357.38;;;-6.91;75.70
61478;BME280;47345;52.334;10.392;2022-12-18T04:15:41;102361.64;;;-6.91;75.71
61478;BME280;47345;52.334;10.392;2022-12-18T04:18:11;102365.57;;;-6.92;75.52
61478;BME280;47345;52.334;10.392;2022-12-18T04:20:42;102363.41;;;-6.96;75.67
61478;BME280;47345;52.334;10.392;2022-12-18T04:23:13;102370.14;;;-6.97;75.68
61478;BME280;47345;52.334;10.392;2022-12-18T04:25:43;102366.41;;;-7.02;75.68
61478;BME280;47345;52.334;10.392;2022-12-18T04:28:14;102368.77;;;-7.03;75.92
61478;BME280;47345;52.334;10.392;2022-12-18T04:30:45;102373.90;;;-7.08;75.89
61478;BME280;47345;52.334;10.392;2022-12-18T04:33:19;102376.10;;;-7.10;76.27
61478;BME280;47345;52.334;10.392;2022-12-18T04:35:50;102371.33;;;-7.10;76.23
61478;BME280;47345;52.334;10.392;2022-12-18T04:38:20;102375.60;;;-7.11;76.37
61478;BME280;47345;52.334;10.392;2022-12-18T04:40:51;102381.27;;;-7.11;76.54
61478;BME280;47345;52.334;10.392;2022-12-18T04:43:22;102379.46;;;-7.10;76.48
61478;BME280;47345;52.334;10.392;2022-12-18T04:45:53;102380.34;;;-7.09;76.55
61478;BME280;47345;52.334;10.392;2022-12-18T04:48:24;102373.85;;;-7.11;76.35
61478;BME280;47345;52.334;10.392;2022-12-18T04:50:55;102375.25;;;-7.11;76.54
61478;BME280;47345;52.334;10.392;2022-12-18T04:53:26;102380.02;;;-7.11;76.42
61478;BME280;47345;52.334;10.392;2022-12-18T04:56:06;102375.95;;;-7.10;76.46
61478;BME280;47345;52.334;10.392;2022-12-18T04:58:37;102362.85;;;-7.11;76.28
61478;BME280;47345;52.334;10.392;2022-12-18T05:01:09;102364.95;;;-7.16;76.28
61478;BME280;47345;52.334;10.392;2022-12-18T05:03:41;102359.57;;;-7.19;76.27
61478;BME280;47345;52.334;10.392;2022-12-18T05:06:12;102355.41;;;-7.22;76.13
61478;BME280;47345;52.334;10.392;2022-12-18T05:08:42;102351.76;;;-7.24;76.34
61478;BME280;47345;52.334;10.392;2022-12-18T05:11:15;102343.35;;;-7.27;76.47
61478;BME280;47345;52.334;10.392;2022-12-18T05:13:46;102344.70;;;-7.25;76.42
61478;BME280;47345;52.334;10.392;2022-12-18T05:16:17;102350.90;;;-7.25;76.27
61478;BME280;47345;52.334;10.392;2022-12-18T05:18:48;102356.18;;;-7.24;76.22
61478;BME280;47345;52.334;10.392;2022-12-18T05:21:18;102360.58;;;-7.23;76.37
61478;BME280;47345;52.334;10.392;2022-12-18T05:23:49;102364.38;;;-7.20;76.25
61478;BME280;47345;52.334;10.392;2022-12-18T05:26:19;102360.79;;;-7.19;76.25
61478;BME280;47345;52.334;10.392;2022-12-18T05:28:50;102364.13;;;-7.18;75.89
61478;BME280;47345;52.334;10.392;2022-12-18T05:31:21;102366.45;;;-7.18;75.89
61478;BME280;47345;52.334;10.392;2022-12-18T05:33:52;102372.52;;;-7.20;75.70
61478;BME280;47345;52.334;10.392;2022-12-18T05:36:23;102371.68;;;-7.21;75.45
61478;BME280;47345;52.334;10.392;2022-12-18T05:38:53;102374.98;;;-7.24;75.35
61478;BME280;47345;52.334;10.392;2022-12-18T05:41:24;102370.27;;;-7.27;75.66
61478;BME280;47345;52.334;10.392;2022-12-18T05:43:55;102367.83;;;-7.28;75.65
61478;BME280;47345;52.334;10.392;2022-12-18T05:46:26;102374.19;;;-7.27;75.71
61478;BME280;47345;52.334;10.392;2022-12-18T05:49:00;102374.45;;;-7.30;75.55
61478;BME280;47345;52.334;10.392;2022-12-18T05:51:31;102376.02;;;-7.34;75.65
61478;BME280;47345;52.334;10.392;2022-12-18T05:54:01;102381.95;;;-7.37;75.76
61478;BME280;47345;52.334;10.392;2022-12-18T05:56:34;102393.82;;;-7.37;75.91
61478;BME280;47345;52.334;10.392;2022-12-18T05:59:04;102391.15;;;-7.36;75.94
61478;BME280;47345;52.334;10.392;2022-12-18T06:01:35;102396.27;;;-7.36;75.89
61478;BME280;47345;52.334;10.392;2022-12-18T06:04:07;102400.64;;;-7.34;76.06
61478;BME280;47345;52.334;10.392;2022-12-18T06:06:37;102400.83;;;-7.34;75.82
61478;BME280;47345;52.334;10.392;2022-12-18T06:09:08;102400.49;;;-7.35;75.72
61478;BME280;47345;52.334;10.392;2022-12-18T06:11:40;102413.18;;;-7.33;75.58
61478;BME280;47345;52.334;10.392;2022-12-18T06:14:11;102421.89;;;-7.34;75.51
61478;BME280;47345;52.334;10.392;2022-12-18T06:16:42;102433.44;;;-7.34;75.05
61478;BME280;47345;52.334;10.392;2022-12-18T06:19:16;102434.23;;;-7.37;74.63
61478;BME280;47345;52.334;10.392;2022-12-18T06:21:46;102439.03;;;-7.43;74.18
61478;BME280;47345;52.334;10.392;2022-12-18T06:24:18;102435.58;;;-7.46;74.72
61478;BME280;47345;52.334;10.392;2022-12-18T06:26:48;102435.10;;;-7.47;74.71
61478;BME280;47345;52.334;10.392;2022-12-18T06:29:19;102433.20;;;-7.49;74.47
61478;BME280;47345;52.334;10.392;2022-12-18T06:31:50;102427.02;;;-7.49;74.74
61478;BME280;47345;52.334;10.392;2022-12-18T06:34:21;102435.60;;;-7.52;74.48
61478;BME280;47345;52.334;10.392;2022-12-18T06:36:51;102438.29;;;-7.52;74.41
61478;BME280;47345;52.334;10.392;2022-12-18T06:39:22;102436.94;;;-7.55;74.15
61478;BME280;47345;52.334;10.392;2022-12-18T06:41:54;102431.52;;;-7.58;73.89
61478;BME280;47345;52.334;10.392;2022-12-18T06:44:25;102428.06;;;-7.60;73.78
61478;BME280;47345;52.334;10.392;2022-12-18T06:46:55;102432.06;;;-7.64;73.67
61478;BME280;47345;52.334;10.392;2022-12-18T06:49:26;102438.38;;;-7.67;73.56
61478;BME280;47345;52.334;10.392;2022-12-18T06:51:59;102442.19;;;-7.70;73.54
61478;BME280;47345;52.334;10.392;2022-12-18T06:54:30;102446.05;;;-7.69;73.69
61478;BME280;47345;52.334;10.392;2022-12-18T06:57:00;102449.13;;;-7.72;73.89
61478;BME280;47345;52.334;10.392;2022-12-18T06:59:31;102454.62;;;-7.72;74.05
61478;BME280;47345;52.334;10.392;2022-12-18T07:02:02;102456.20;;;-7.71;73.92
61478;BME280;47345;52.334;10.392;2022-12-18T07:04:33;102455.30;;;-7.70;73.75
61478;BME280;47345;52.334;10.392;2022-12-18T07:07:03;102446.52;;;-7.74;73.42
61478;BME280;47345;52.334;10.392;2022-12-18T07:09:35;102438.13;;;-7.77;73.49
61478;BME280;47345;52.334;10.392;2022-12-18T07:12:05;102443.41;;;-7.76;74.01
61478;BME280;47345;52.334;10.392;2022-12-18T07:14:37;102447.80;;;-7.75;74.17
61478;BME280;47345;52.334;10.392;2022-12-18T07:17:08;102453.99;;;-7.74;74.04
61478;BME280;47345;52.334;10.392;2022-12-18T07:19:39;102452.89;;;-7.73;74.12
61478;BME280;47345;52.334;10.392;2022-12-18T07:22:10;102455.94;;;-7.74;73.84
61478;BME280;47345;52.334;10.392;2022-12-18T07:24:40;102466.58;;;-7.75;74.03
61478;BME280;47345;52.334;10.392;2022-12-18T07:27:11;102471.94;;;-7.76;74.02
61478;BME280;47345;52.334;10.392;2022-12-18T07:29:42;102481.98;;;-7.80;73.79
61478;BME280;47345;52.334;10.392;2022-12-18T07:32:12;102488.45;;;-7.83;74.10
61478;BME280;47345;52.334;10.392;2022-12-18T07:34:43;102493.70;;;-7.81;74.35
61478;BME280;47345;52.334;10.392;2022-12-18T07:37:16;102496.65;;;-7.79;74.30
61478;BME280;47345;52.334;10.392;2022-12-18T07:39:46;102491.77;;;-7.82;73.76
61478;BME280;47345;52.334;10.392;2022-12-18T07:42:19;102491.30;;;-7.84;73.32
61478;BME280;47345;52.334;10.392;2022-12-18T07:45:02;102491.92;;;-7.87;72.74
61478;BME280;47345;52.334;10.392;2022-12-18T07:47:35;102491.15;;;-7.91;72.49
61478;BME280;47345;52.334;10.392;2022-12-18T07:50:07;102498.60;;;-7.92;72.41
61478;BME280;47345;52.334;10.392;2022-12-18T07:52:38;102504.48;;;-7.93;72.25
61478;BME280;47345;52.334;10.392;2022-12-18T07:55:09;102506.65;;;-7.94;72.51
61478;BME280;47345;52.334;10.392;2022-12-18T07:57:40;102506.89;;;-7.97;72.51
61478;BME280;47345;52.334;10.392;2022-12-18T08:00:20;102518.30;;;-7.93;72.49
61478;BME280;47345;52.334;10.392;2022-12-18T08:02:51;102519.14;;;-7.91;72.56
61478;BME280;47345;52.334;10.392;2022-12-18T08:05:23;102510.25;;;-7.90;72.80
61478;BME280;47345;52.334;10.392;2022-12-18T08:07:54;102511.31;;;-7.90;72.48
61478;BME280;47345;52.334;10.392;2022-12-18T08:10:25;102505.13;;;-7.90;72.32
61478;BME280;47345;52.334;10.392;2022-12-18T08:12:56;102506.34;;;-7.89;72.26
61478;BME280;47345;52.334;10.392;2022-12-18T08:15:33;102499.91;;;-7.88;72.36
61478;BME280;47345;52.334;10.392;2022-12-18T08:18:04;102491.64;;;-7.84;72.83
61478;BME280;47345;52.334;10.392;2022-12-18T08:20:40;102486.56;;;-7.79;73.39
61478;BME280;47345;52.334;10.392;2022-12-18T08:23:11;102482.61;;;-7.72;74.11
61478;BME280;47345;52.334;10.392;2022-12-18T08:25:42;102476.20;;;-7.64;74.49
61478;BME280;47345;52.334;10.392;2022-12-18T08:28:13;102470.40;;;-7.60;74.68
61478;BME280;47345;52.334;10.392;2022-12-18T08:30:45;102459.61;;;-7.55;75.04
61478;BME280;47345;52.334;10.392;2022-12-18T08:33:16;102453.63;;;-7.50;75.20
61478;BME280;47345;52.334;10.392;2022-12-18T08:35:49;102457.57;;;-7.46;75.52
61478;BME280;47345;52.334;10.392;2022-12-18T08:38:29;102458.68;;;-7.42;75.61
61478;BME280;47345;52.334;10.392;2022-12-18T08:41:02;102460.92;;;-7.34;75.98
61478;BME280;47345;52.334;10.392;2022-12-18T08:43:34;102457.71;;;-7.28;76.05
61478;BME280;47345;52.334;10.392;2022-12-18T08:46:31;102460.25;;;-7.24;76.11
61478;BME280;47345;52.334;10.392;2022-12-18T08:49:04;102453.74;;;-7.20;76.41
61478;BME280;47345;52.334;10.392;2022-12-18T08:51:39;102448.99;;;-7.16;76.64
61478;BME280;47345;52.334;10.392;2022-12-18T08:54:12;102451.30;;;-7.10;76.87
61478;BME280;47345;52.334;10.392;2022-12-18T08:56:42;102452.20;;;-7.04;77.08
61478;BME280;47345;52.334;10.392;2022-12-18T08:59:13;102454.82;;;-6.98;77.15
61478;BME280;47345;52.334;10.392;2022-12-18T09:01:48;102452.20;;;-6.94;77.19
61478;BME280;47345;52.334;10.392;2022-12-18T09:04:19;102448.70;;;-6.90;77.29
61478;BME280;47345;52.334;10.392;2022-12-18T09:06:50;102447.83;;;-6.86;77.42
61478;BME280;47345;52.334;10.392;2022-12-18T09:09:21;102445.56;;;-6.82;77.49
61478;BME280;47345;52.334;10.392;2022-12-18T09:11:51;102437.03;;;-6.81;77.62
61478;BME280;47345;52.334;10.392;2022-12-18T09:14:22;102434.35;;;-6.80;77.85
61478;BME280;47345;52.334;10.392;2022-12-18T09:16:52;102428.06;;;-6.78;78.09
61478;BME280;47345;52.334;10.392;2022-12-18T09:19:24;102424.42;;;-6.75;78.15
61478;BME280;47345;52.334;10.392;2022-12-18T09:21:55;102424.52;;;-6.73;78.45
61478;BME280;47345;52.334;10.392;2022-12-18T09:24:26;102425.81;;;-6.70;78.62
61478;BME280;47345;52.334;10.392;2022-12-18T09:26:57;102424.45;;;-6.66;78.53
61478;BME280;47345;52.334;10.392;2022-12-18T09:29:28;102421.10;;;-6.62;78.83
61478;BME280;47345;52.334;10.392;2022-12-18T09:31:58;102417.04;;;-6.57;78.95
61478;BME280;47345;52.334;10.392;2022-12-18T09:34:30;102416.05;;;-6.54;78.94
61478;BME280;47345;52.334;10.392;2022-12-18T09:37:01;102411.83;;;-6.50;78.95
61478;BME280;47345;52.334;10.392;2022-12-18T09:39:32;102418.91;;;-6.45;79.28
61478;BME280;47345;52.334;10.392;2022-12-18T09:42:03;102415.51;;;-6.39;79.32
61478;BME280;47345;52.334;10.392;2022-12-18T09:44:36;102407.52;;;-6.34;79.44
61478;BME280;47345;52.334;10.392;2022-12-18T09:47:17;102407.77;;;-6.26;79.68
61478;BME280;47345;52.334;10.392;2022-12-18T09:49:52;102406.26;;;-6.19;79.83
61478;BME280;47345;52.334;10.392;2022-12-18T09:52:28;102407.41;;;-6.12;79.72
61478;BME280;47345;52.334;10.392;2022-12-18T09:55:05;102397.59;;;-6.05;79.87
61478;BME280;47345;52.334;10.392;2022-12-18T09:57:39;102390.58;;;-5.99;79.85
61478;BME280;47345;52.334;10.392;2022-12-18T10:00:17;102399.08;;;-5.94;79.80
61478;BME280;47345;52.334;10.392;2022-12-18T10:02:50;102404.89;;;-5.88;79.95
61478;BME280;47345;52.334;10.392;2022-12-18T10:05:35;102410.35;;;-5.82;79.86
61478;BME280;47345;52.334;10.392;2022-12-18T10:08:10;102404.03;;;-5.80;79.85
61478;BME280;47345;52.334;10.392;2022-12-18T10:10:48;102409.58;;;-5.71;79.92
61478;BME280;47345;52.334;10.392;2022-12-18T10:13:28;102410.91;;;-5.64;80.03
61478;BME280;47345;52.334;10.392;2022-12-18T10:16:11;102412.08;;;-5.58;79.98
61478;BME280;47345;52.334;10.392;2022-12-18T10:19:04;102414.15;;;-5.52;80.00
61478;BME280;47345;52.334;10.392;2022-12-18T10:21:45;102419.44;;;-5.45;80.08
61478;BME280;47345;52.334;10.392;2022-12-18T10:24:24;102428.41;;;-5.39;80.02
61478;BME280;47345;52.334;10.392;2022-12-18T10:27:04;102441.55;;;-5.34;80.03
61478;BME280;47345;52.334;10.392;2022-12-18T10:29:40;102452.48;;;-5.28;80.02
61478;BME280;47345;52.334;10.392;2022-12-18T10:32:15;102448.23;;;-5.24;80.00
61478;BME280;47345;52.334;10.392;2022-12-18T10:34:51;102442.55;;;-5.19;80.03
61478;BME280;47345;52.334;10.392;2022-12-18T10:37:30;102433.64;;;-5.15;79.85
61478;BME280;47345;52.334;10.392;2022-12-18T10:40:13;102427.27;;;-5.11;79.96
61478;BME280;47345;52.334;10.392;2022-12-18T10:43:04;102434.33;;;-5.05;79.93
61478;BME280;47345;52.334;10.392;2022-12-18T10:45:36;102441.25;;;-5.01;79.72
61478;BME280;47345;52.334;10.392;2022-12-18T10:48:19;102435.75;;;-4.96;79.70
61478;BME280;47345;52.334;10.392;2022-12-18T10:50:50;102437.52;;;-4.92;79.83
61478;BME280;47345;52.334;10.392;2022-12-18T10:53:44;102424.52;;;-4.87;79.78
61478;BME280;47345;52.334;10.392;2022-12-18T10:56:22;102421.34;;;-4.84;79.83
61478;BME280;47345;52.334;10.392;2022-12-18T10:59:00;102415.50;;;-4.80;79.79
61478;BME280;47345;52.334;10.392;2022-12-18T11:01:33;102406.43;;;-4.77;79.73
61478;BME280;47345;52.334;10.392;2022-12-18T11:04:18;102400.88;;;-4.72;79.66
61478;BME280;47345;52.334;10.392;2022-12-18T11:06:58;102403.55;;;-4.67;79.61
61478;BME280;47345;52.334;10.392;2022-12-18T11:09:30;102401.01;;;-4.62;79.63
61478;BME280;47345;52.334;10.392;2022-12-18T11:12:03;102399.55;;;-4.57;79.52
61478;BME280;47345;52.334;10.392;2022-12-18T11:14:43;102400.94;;;-4.53;79.60
61478;BME280;47345;52.334;10.392;2022-12-18T11:17:22;102398.61;;;-4.48;79.44
61478;BME280;47345;52.334;10.392;2022-12-18T11:19:57;102397.73;;;-4.45;79.34
61478;BME280;47345;52.334;10.392;2022-12-18T11:22:29;102381.89;;;-4.40;79.29
61478;BME280;47345;52.334;10.392;2022-12-18T11:25:02;102376.35;;;-4.36;79.24
61478;BME280;47345;52.334;10.392;2022-12-18T11:27:56;102373.65;;;-4.32;79.42
61478;BME280;47345;52.334;10.392;2022-12-18T11:30:30;102369.23;;;-4.28;79.32
61478;BME280;47345;52.334;10.392;2022-12-18T11:33:04;102371.79;;;-4.25;79.36
61478;BME280;47345;52.334;10.392;2022-12-18T11:35:47;102367.36;;;-4.23;79.36
61478;BME280;47345;52.334;10.392;2022-12-18T11:38:24;102362.95;;;-4.20;79.50
61478;BME280;47345;52.334;10.392;2022-12-18T11:40:58;102366.22;;;-4.17;79.51
61478;BME280;47345;52.334;10.392;2022-12-18T11:43:33;102376.80;;;-4.15;79.52
61478;BME280;47345;52.334;10.392;2022-12-18T11:46:10;102380.59;;;-4.12;79.50
61478;BME280;47345;52.334;10.392;2022-12-18T11:48:52;102387.73;;;-4.08;79.40
61478;BME280;47345;52.334;10.392;2022-12-18T11:51:30;102384.44;;;-4.06;79.35
61478;BME280;47345;52.334;10.392;2022-12-18T11:54:11;102387.17;;;-4.04;79.33
61478;BME280;47345;52.334;10.392;2022-12-18T11:56:46;102389.16;;;-4.01;79.48
61478;BME280;47345;52.334;10.392;2022-12-18T11:59:26;102386.48;;;-3.96;79.38
61478;BME280;47345;52.334;10.392;2022-12-18T12:02:04;102378.82;;;-3.93;79.35
61478;BME280;47345;52.334;10.392;2022-12-18T12:04:50;102373.39;;;-3.87;79.43
61478;BME280;47345;52.334;10.392;2022-12-18T12:07:33;102370.64;;;-3.81;79.36
61478;BME280;47345;52.334;10.392;2022-12-18T12:10:18;102365.77;;;-3.77;79.34
61478;BME280;47345;52.334;10.392;2022-12-18T12:13:08;102355.95;;;-3.72;79.25
61478;BME280;47345;52.334;10.392;2022-12-18T12:15:52;102352.83;;;-3.67;79.31
61478;BME280;47345;52.334;10.392;2022-12-18T12:18:35;102344.48;;;-3.64;79.25
61478;BME280;47345;52.334;10.392;2022-12-18T12:21:15;102327.16;;;-3.60;79.29
61478;BME280;47345;52.334;10.392;2022-12-18T12:23:53;102320.94;;;-3.57;79.36
61478;BME280;47345;52.334;10.392;2022-12-18T12:26:35;102316.67;;;-3.53;79.46
61478;BME280;47345;52.334;10.392;2022-12-18T12:29:24;102315.38;;;-3.49;79.47
61478;BME280;47345;52.334;10.392;2022-12-18T12:32:11;102309.88;;;-3.46;79.70
61478;BME280;47345;52.334;10.392;2022-12-18T12:34:54;102305.67;;;-3.40;80.03
61478;BME280;47345;52.334;10.392;2022-12-18T12:37:41;102301.89;;;-3.36;79.83
61478;BME280;47345;52.334;10.392;2022-12-18T12:40:20;102299.23;;;-3.32;80.06
61478;BME280;47345;52.334;10.392;2022-12-18T12:43:21;102299.46;;;-3.30;80.16
61478;BME280;47345;52.334;10.392;2022-12-18T12:45:55;102295.27;;;-3.28;80.34
61478;BME280;47345;52.334;10.392;2022-12-18T12:48:44;102287.28;;;-3.26;80.13
61478;BME280;47345;52.334;10.392;2022-12-18T12:51:20;102278.23;;;-3.23;80.28
61478;BME280;47345;52.334;10.392;2022-12-18T12:53:52;102273.30;;;-3.21;80.32
61478;BME280;47345;52.334;10.392;2022-12-18T12:56:24;102270.48;;;-3.18;80.34
61478;BME280;47345;52.334;10.392;2022-12-18T12:59:04;102266.39;;;-3.15;80.53
61478;BME280;47345;52.334;10.392;2022-12-18T13:01:47;102262.46;;;-3.12;80.56
61478;BME280;47345;52.334;10.392;2022-12-18T13:04:23;102262.98;;;-3.08;80.25
61478;BME280;47345;52.334;10.392;2022-12-18T13:06:59;102257.11;;;-3.05;80.25
61478;BME280;47345;52.334;10.392;2022-12-18T13:09:33;102257.88;;;-3.02;80.36
61478;BME280;47345;52.334;10.392;2022-12-18T13:12:10;102250.45;;;-3.00;80.34
61478;BME280;47345;52.334;10.392;2022-12-18T13:15:13;102242.52;;;-2.99;80.23
61478;BME280;47345;52.334;10.392;2022-12-18T13:17:46;102241.60;;;-2.99;80.17